Tropical Cyclones
[Index]
Main Index Home Page Stock Weather Photos Extreme Storms Discussion Storm News and Storm Chasing Reports Tropical Cyclones / Hurricanes / Typhoons Weather Data and Links Wild Fires / Bushfires Weather Observation Techniques Weather Picture Catalogue Tornado Pictures and Reports Stock Video Footage and DVDs for sale
Season 2005-2006 Tropical Cyclone MONICA Track Map
Season 2005-2006 Summaries (Operational Data): [AU] [SIO] [SPAC] [SH]
<<- Previous TC | 2005-2006 Season | Next TC ->>

click for intensity scale information  Lat/long Grid: Show Hide

 Date Labels: Show Hide

Operational Tropical Cyclone Data : JTWC Advisories | BoM Warnings

Name: MONICA
Number: 0623

16 Apr 2006 11:00 UTC to 26 Apr 2006 06:00 UTC

    date/time    lat    long     hPa   cat  kts
2006-04-16 11    9.5   151.4                 25          
2006-04-16 18   10.9   150.5                 30          
2006-04-17 00   12.4   150.0     995    1    40          
2006-04-17 06   12.5   149.6     995    1    40          
2006-04-17 12   12.6   149.4     990    1    45          
2006-04-17 18   12.6   148.5     985    2    50          
2006-04-18 00   12.9   147.8     980    2    60          
2006-04-18 06   13.5   146.6     975    2    60          
2006-04-18 12   13.0   145.6     970    3    70          
2006-04-18 18   12.9   144.8     965    3    80          
2006-04-19 00   12.9   144.3     960    3    80          
2006-04-19 06   13.1   143.4     960    3    75          
2006-04-19 12   13.6   142.6     965    3    70          
2006-04-19 18   13.7   142.0     980    2    55          
2006-04-20 00   13.6   141.5     985    2    50          
2006-04-20 06   14.0   140.7     980    2    55          
2006-04-20 12   13.8   140.4     980    2    55          
2006-04-20 18   13.6   140.2     960    3    75          
2006-04-21 00   13.4   140.0     960    3    75          
2006-04-21 06   13.2   139.9     950    4    90          
2006-04-21 12   13.1   139.7     945    4    95          
2006-04-21 18   12.8   139.5     945    4    95          
2006-04-22 00   12.6   139.4     945    4   100          
2006-04-22 06   12.4   139.2     935    5   110          
2006-04-22 12   12.1   138.7     925    5   125          
2006-04-22 18   11.7   138.5     925    5   125          
2006-04-23 00   11.4   138.0     925    5   125          
2006-04-23 06   11.4   137.4     905    5   135          
2006-04-23 12   11.3   136.7     905    5   135          
2006-04-23 18   11.3   135.8     910    5   135          
2006-04-24 00   11.4   135.2     915    5   135          
2006-04-24 06   11.7   134.4     915    5   135          
2006-04-24 12   12.0   133.7     935    4   100          
2006-04-24 18   12.7   132.7     980    2    50          
2006-04-25 00   12.6   131.4     990    1    35          
2006-04-25 06   12.3   130.7     998         30          
2006-04-25 12   12.3   130.5     998         30          
2006-04-25 18   12.7   130.2     995         30          
2006-04-26 00   13.2   129.9    1000         25          
2006-04-26 06   13.6   129.4    1001         20          
Winds are 10-min average.

Tropical cyclone tracks developed by Michael Bath using operational warnings and advisories and Google Maps.


[Australian Severe Weather index] [Copyright Notice] [Email Contacts] [Search This Site] [Privacy Policy]
Document: tropical_cyclone_monica.htm Updated: 28 May 2013